DEP weather

Daporijo Airport
Daporijo, Arunachal Pradesh, India

Public forecast

Using degrees Celsius for public forecast. Weather courtesy of forecast.io.

METAR (pilot weather report)

Report is more than 6 hours old.

Closest report is Dibrugarh Airport, 51.8 nm (96.0 km) SE. Retrieved 2019/03/23 11:30 UTC (7 hours ago):

VEMN 231130Z 08005KT 4000 HZ SCT020 FEW025CB BKN100 22/18 Q1009 NOSIG

TAF (pilot weather forecast)

Forecast is more than 6 hours old.

Closest forecast is Jorhat Airport, 75.3 nm (139.5 km) S. Retrieved 2019/03/23 12:30 UTC (6 hours ago):

TAF VEJT 230930Z 2312/2324 05005KT 6000 SCT025 BKN090 TEMPO 2313/2315 02005KT 4000 TSRA SCT025 FEW030CB BKN090 TEMPO 2316/2318 23010KT 4000 TSRA BECMG 2321/2324 3000 BR SCT025 FEW030TCU SCT100 SCT250